Shrewsbury, Massachusetts
Current Conditions -  °F | °C
As of 6:54 AM on Thursday 27 Nov 2014 (Local Time) from KORH Reporting Station
Broken Clouds Broken Clouds  
Wind Chill: 19°   Ceiling: 7000
Heat Index: 29°   Visibility: 10mi
Dew Point: 27°   Wind: 12mph
Humidity: 92%   Direction: 300°WNW
Pressure: 29.82"   Gusts: NA
Location:  42.3°N, 71.71°W
Report Text: KORH 271154Z 30010KT 10SM BKN070 M02/M03 A2982 RMK AO2 SLP111 60003 7//// T10171028 11006 21017 51018
Loading
Personal Weather Stations






























Interactive Weather Map New forecast layout! Learn more

10-Day Weather Forecast

Advertisements
Track Severe Weather on mobile